sensor_id;sensor_type;location;lat;lon;timestamp;temperature;humidity
20744;DHT22;56303;52.160;-0.428;2022-11-04T00:02:06;8.30;99.90
20744;DHT22;56303;52.160;-0.428;2022-11-04T00:04:33;8.40;99.90
20744;DHT22;56303;52.160;-0.428;2022-11-04T00:07:00;8.60;99.90
20744;DHT22;56303;52.160;-0.428;2022-11-04T00:09:28;8.40;99.90
20744;DHT22;56303;52.160;-0.428;2022-11-04T00:11:59;8.20;99.90
20744;DHT22;56303;52.160;-0.428;2022-11-04T00:14:44;8.40;99.90
20744;DHT22;56303;52.160;-0.428;2022-11-04T00:17:11;8.10;99.90
20744;DHT22;56303;52.160;-0.428;2022-11-04T00:19:45;8.20;99.90
20744;DHT22;56303;52.160;-0.428;2022-11-04T00:22:31;8.00;99.90
20744;DHT22;56303;52.160;-0.428;2022-11-04T00:25:17;8.10;99.90
20744;DHT22;56303;52.160;-0.428;2022-11-04T00:28:18;8.10;99.90
20744;DHT22;56303;52.160;-0.428;2022-11-04T00:31:05;8.00;99.90
20744;DHT22;56303;52.160;-0.428;2022-11-04T00:33:52;8.00;99.90
20744;DHT22;56303;52.160;-0.428;2022-11-04T00:36:21;8.00;99.90
20744;DHT22;56303;52.160;-0.428;2022-11-04T00:38:48;8.00;99.90
20744;DHT22;56303;52.160;-0.428;2022-11-04T00:41:15;8.30;99.90
20744;DHT22;56303;52.160;-0.428;2022-11-04T00:44:00;8.20;99.90
20744;DHT22;56303;52.160;-0.428;2022-11-04T00:46:29;8.30;99.90
20744;DHT22;56303;52.160;-0.428;2022-11-04T00:48:57;8.30;99.90
20744;DHT22;56303;52.160;-0.428;2022-11-04T00:51:24;8.40;99.90
20744;DHT22;56303;52.160;-0.428;2022-11-04T00:53:51;8.20;99.90
20744;DHT22;56303;52.160;-0.428;2022-11-04T00:56:18;8.20;99.90
20744;DHT22;56303;52.160;-0.428;2022-11-04T00:58:45;8.00;99.90
20744;DHT22;56303;52.160;-0.428;2022-11-04T01:01:14;8.10;99.90
20744;DHT22;56303;52.160;-0.428;2022-11-04T01:03:45;8.40;99.90
20744;DHT22;56303;52.160;-0.428;2022-11-04T01:06:12;8.30;99.90
20744;DHT22;56303;52.160;-0.428;2022-11-04T01:08:39;8.30;99.90
20744;DHT22;56303;52.160;-0.428;2022-11-04T01:11:07;8.30;99.90
20744;DHT22;56303;52.160;-0.428;2022-11-04T01:13:36;8.30;99.90
20744;DHT22;56303;52.160;-0.428;2022-11-04T01:16:05;8.40;99.90
20744;DHT22;56303;52.160;-0.428;2022-11-04T01:18:32;8.30;99.90
20744;DHT22;56303;52.160;-0.428;2022-11-04T01:21:01;8.20;99.90
20744;DHT22;56303;52.160;-0.428;2022-11-04T01:23:28;8.40;99.90
20744;DHT22;56303;52.160;-0.428;2022-11-04T01:25:55;8.50;99.90
20744;DHT22;56303;52.160;-0.428;2022-11-04T01:28:21;8.20;99.90
20744;DHT22;56303;52.160;-0.428;2022-11-04T01:30:48;8.20;99.90
20744;DHT22;56303;52.160;-0.428;2022-11-04T01:33:15;8.00;99.90
20744;DHT22;56303;52.160;-0.428;2022-11-04T01:35:42;8.00;99.90
20744;DHT22;56303;52.160;-0.428;2022-11-04T01:38:09;8.20;99.90
20744;DHT22;56303;52.160;-0.428;2022-11-04T01:40:38;8.20;99.90
20744;DHT22;56303;52.160;-0.428;2022-11-04T01:43:16;8.40;99.90
20744;DHT22;56303;52.160;-0.428;2022-11-04T01:45:50;8.20;99.90
20744;DHT22;56303;52.160;-0.428;2022-11-04T01:48:22;8.20;99.90
20744;DHT22;56303;52.160;-0.428;2022-11-04T01:50:51;8.00;99.90
20744;DHT22;56303;52.160;-0.428;2022-11-04T01:53:27;8.10;99.90
20744;DHT22;56303;52.160;-0.428;2022-11-04T01:55:57;8.00;99.90
20744;DHT22;56303;52.160;-0.428;2022-11-04T01:58:31;8.00;99.90
20744;DHT22;56303;52.160;-0.428;2022-11-04T02:01:01;8.00;99.90
20744;DHT22;56303;52.160;-0.428;2022-11-04T02:03:35;8.10;99.90
20744;DHT22;56303;52.160;-0.428;2022-11-04T02:06:04;7.90;99.90
20744;DHT22;56303;52.160;-0.428;2022-11-04T02:08:32;7.70;99.90
20744;DHT22;56303;52.160;-0.428;2022-11-04T02:11:02;7.70;99.90
20744;DHT22;56303;52.160;-0.428;2022-11-04T02:13:34;7.60;99.90
20744;DHT22;56303;52.160;-0.428;2022-11-04T02:16:13;7.60;99.90
20744;DHT22;56303;52.160;-0.428;2022-11-04T02:19:01;7.50;99.90
20744;DHT22;56303;52.160;-0.428;2022-11-04T02:24:38;7.30;99.90
20744;DHT22;56303;52.160;-0.428;2022-11-04T02:27:42;7.20;99.90
20744;DHT22;56303;52.160;-0.428;2022-11-04T02:30:20;7.20;99.90
20744;DHT22;56303;52.160;-0.428;2022-11-04T02:35:41;7.00;99.90
20744;DHT22;56303;52.160;-0.428;2022-11-04T02:47:20;6.90;99.90
20744;DHT22;56303;52.160;-0.428;2022-11-04T02:49:57;6.90;99.90
20744;DHT22;56303;52.160;-0.428;2022-11-04T02:52:38;6.90;99.90
20744;DHT22;56303;52.160;-0.428;2022-11-04T02:55:11;7.10;99.90
20744;DHT22;56303;52.160;-0.428;2022-11-04T02:57:41;6.90;99.90
20744;DHT22;56303;52.160;-0.428;2022-11-04T03:00:11;7.00;99.90
20744;DHT22;56303;52.160;-0.428;2022-11-04T03:02:50;6.80;99.90
20744;DHT22;56303;52.160;-0.428;2022-11-04T03:05:22;7.00;99.90
20744;DHT22;56303;52.160;-0.428;2022-11-04T03:07:54;6.80;99.90
20744;DHT22;56303;52.160;-0.428;2022-11-04T03:10:42;6.50;99.90
20744;DHT22;56303;52.160;-0.428;2022-11-04T03:13:18;6.60;99.90
20744;DHT22;56303;52.160;-0.428;2022-11-04T03:15:53;6.60;99.90
20744;DHT22;56303;52.160;-0.428;2022-11-04T03:21:00;6.60;99.90
20744;DHT22;56303;52.160;-0.428;2022-11-04T03:23:27;6.70;99.90
20744;DHT22;56303;52.160;-0.428;2022-11-04T03:26:01;6.70;99.90
20744;DHT22;56303;52.160;-0.428;2022-11-04T03:31:21;6.60;99.90
20744;DHT22;56303;52.160;-0.428;2022-11-04T03:33:50;6.60;99.90
20744;DHT22;56303;52.160;-0.428;2022-11-04T03:36:18;6.80;99.90
20744;DHT22;56303;52.160;-0.428;2022-11-04T03:38:48;6.60;99.90
20744;DHT22;56303;52.160;-0.428;2022-11-04T03:41:25;6.70;99.90
20744;DHT22;56303;52.160;-0.428;2022-11-04T03:43:52;6.90;99.90
20744;DHT22;56303;52.160;-0.428;2022-11-04T03:46:20;7.00;99.90
20744;DHT22;56303;52.160;-0.428;2022-11-04T03:48:51;6.90;99.90
20744;DHT22;56303;52.160;-0.428;2022-11-04T03:51:18;6.80;99.90
20744;DHT22;56303;52.160;-0.428;2022-11-04T03:53:45;6.90;99.90
20744;DHT22;56303;52.160;-0.428;2022-11-04T04:06:50;6.80;99.90
20744;DHT22;56303;52.160;-0.428;2022-11-04T04:12:21;6.60;99.90
20744;DHT22;56303;52.160;-0.428;2022-11-04T04:14:56;6.80;99.90
20744;DHT22;56303;52.160;-0.428;2022-11-04T04:17:33;7.10;99.90
20744;DHT22;56303;52.160;-0.428;2022-11-04T04:20:05;7.20;99.90
20744;DHT22;56303;52.160;-0.428;2022-11-04T04:22:44;7.30;99.90
20744;DHT22;56303;52.160;-0.428;2022-11-04T04:25:13;7.20;99.90
20744;DHT22;56303;52.160;-0.428;2022-11-04T04:28:01;7.20;99.90
20744;DHT22;56303;52.160;-0.428;2022-11-04T04:30:29;7.10;99.90
20744;DHT22;56303;52.160;-0.428;2022-11-04T04:33:06;7.20;99.90
20744;DHT22;56303;52.160;-0.428;2022-11-04T04:35:47;7.20;99.90
20744;DHT22;56303;52.160;-0.428;2022-11-04T04:38:21;7.20;99.90
20744;DHT22;56303;52.160;-0.428;2022-11-04T04:43:58;7.20;99.90
20744;DHT22;56303;52.160;-0.428;2022-11-04T04:46:44;7.40;99.90
20744;DHT22;56303;52.160;-0.428;2022-11-04T04:49:12;7.20;99.90
20744;DHT22;56303;52.160;-0.428;2022-11-04T04:51:47;7.40;99.90
20744;DHT22;56303;52.160;-0.428;2022-11-04T04:54:14;7.00;99.90
20744;DHT22;56303;52.160;-0.428;2022-11-04T04:56:41;7.30;99.90
20744;DHT22;56303;52.160;-0.428;2022-11-04T04:59:07;7.10;99.90
20744;DHT22;56303;52.160;-0.428;2022-11-04T05:01:34;7.50;99.90
20744;DHT22;56303;52.160;-0.428;2022-11-04T05:04:01;7.40;99.90
20744;DHT22;56303;52.160;-0.428;2022-11-04T05:06:28;7.50;99.90
20744;DHT22;56303;52.160;-0.428;2022-11-04T05:08:54;7.50;99.90
20744;DHT22;56303;52.160;-0.428;2022-11-04T05:11:21;7.40;99.90
20744;DHT22;56303;52.160;-0.428;2022-11-04T05:13:52;7.10;99.90
20744;DHT22;56303;52.160;-0.428;2022-11-04T05:16:19;7.10;99.90
20744;DHT22;56303;52.160;-0.428;2022-11-04T05:18:46;7.00;99.90
20744;DHT22;56303;52.160;-0.428;2022-11-04T05:21:14;7.20;99.90
20744;DHT22;56303;52.160;-0.428;2022-11-04T05:23:41;7.20;99.90
20744;DHT22;56303;52.160;-0.428;2022-11-04T05:26:08;7.10;99.90
20744;DHT22;56303;52.160;-0.428;2022-11-04T05:28:35;7.30;99.90
20744;DHT22;56303;52.160;-0.428;2022-11-04T05:31:04;7.20;99.90
20744;DHT22;56303;52.160;-0.428;2022-11-04T05:33:30;7.60;99.90
20744;DHT22;56303;52.160;-0.428;2022-11-04T05:36:12;7.50;99.90
20744;DHT22;56303;52.160;-0.428;2022-11-04T05:38:39;7.50;99.90
20744;DHT22;56303;52.160;-0.428;2022-11-04T05:41:08;7.20;99.90
20744;DHT22;56303;52.160;-0.428;2022-11-04T05:43:36;7.10;99.90
20744;DHT22;56303;52.160;-0.428;2022-11-04T05:46:03;6.90;99.90
20744;DHT22;56303;52.160;-0.428;2022-11-04T05:48:30;6.80;99.90
20744;DHT22;56303;52.160;-0.428;2022-11-04T05:51:03;6.70;99.90
20744;DHT22;56303;52.160;-0.428;2022-11-04T05:53:30;6.90;99.90
20744;DHT22;56303;52.160;-0.428;2022-11-04T05:55:56;6.70;99.90
20744;DHT22;56303;52.160;-0.428;2022-11-04T05:58:23;6.90;99.90
20744;DHT22;56303;52.160;-0.428;2022-11-04T06:00:50;7.10;99.90
20744;DHT22;56303;52.160;-0.428;2022-11-04T06:03:16;7.20;99.90
20744;DHT22;56303;52.160;-0.428;2022-11-04T06:05:43;7.20;99.90
20744;DHT22;56303;52.160;-0.428;2022-11-04T06:08:10;7.10;99.90
20744;DHT22;56303;52.160;-0.428;2022-11-04T06:10:37;7.10;99.90
20744;DHT22;56303;52.160;-0.428;2022-11-04T06:13:04;6.90;99.90
20744;DHT22;56303;52.160;-0.428;2022-11-04T06:15:31;6.90;99.90
20744;DHT22;56303;52.160;-0.428;2022-11-04T06:17:58;7.20;99.90
20744;DHT22;56303;52.160;-0.428;2022-11-04T06:20:24;6.90;99.90
20744;DHT22;56303;52.160;-0.428;2022-11-04T06:22:51;6.90;99.90
20744;DHT22;56303;52.160;-0.428;2022-11-04T06:25:18;6.90;99.90
20744;DHT22;56303;52.160;-0.428;2022-11-04T06:27:45;6.90;99.90
20744;DHT22;56303;52.160;-0.428;2022-11-04T06:30:12;6.90;99.90
20744;DHT22;56303;52.160;-0.428;2022-11-04T06:32:39;6.90;99.90
20744;DHT22;56303;52.160;-0.428;2022-11-04T06:35:06;7.10;99.90
20744;DHT22;56303;52.160;-0.428;2022-11-04T06:37:34;7.10;99.90
20744;DHT22;56303;52.160;-0.428;2022-11-04T06:40:01;7.10;99.90
20744;DHT22;56303;52.160;-0.428;2022-11-04T06:42:28;7.20;99.90
20744;DHT22;56303;52.160;-0.428;2022-11-04T06:44:55;7.00;99.90
20744;DHT22;56303;52.160;-0.428;2022-11-04T06:47:21;7.00;99.90
20744;DHT22;56303;52.160;-0.428;2022-11-04T06:49:50;7.20;99.90
20744;DHT22;56303;52.160;-0.428;2022-11-04T06:52:18;7.30;99.90
20744;DHT22;56303;52.160;-0.428;2022-11-04T06:54:46;7.30;99.90
20744;DHT22;56303;52.160;-0.428;2022-11-04T06:57:13;7.10;99.90
20744;DHT22;56303;52.160;-0.428;2022-11-04T06:59:40;7.20;99.90
20744;DHT22;56303;52.160;-0.428;2022-11-04T07:02:09;7.20;99.90
20744;DHT22;56303;52.160;-0.428;2022-11-04T07:04:36;7.10;99.90
20744;DHT22;56303;52.160;-0.428;2022-11-04T07:07:03;6.80;99.90
20744;DHT22;56303;52.160;-0.428;2022-11-04T07:09:30;6.90;99.90
20744;DHT22;56303;52.160;-0.428;2022-11-04T07:11:57;6.90;99.90
20744;DHT22;56303;52.160;-0.428;2022-11-04T07:14:23;7.00;99.90
20744;DHT22;56303;52.160;-0.428;2022-11-04T07:16:50;7.20;99.90
20744;DHT22;56303;52.160;-0.428;2022-11-04T07:19:17;7.30;99.90
20744;DHT22;56303;52.160;-0.428;2022-11-04T07:21:44;7.20;99.90
20744;DHT22;56303;52.160;-0.428;2022-11-04T07:24:11;7.00;99.90
20744;DHT22;56303;52.160;-0.428;2022-11-04T07:26:38;7.10;99.90
20744;DHT22;56303;52.160;-0.428;2022-11-04T07:29:05;6.90;99.90
20744;DHT22;56303;52.160;-0.428;2022-11-04T07:31:32;7.10;99.90
20744;DHT22;56303;52.160;-0.428;2022-11-04T07:33:59;7.10;99.90
20744;DHT22;56303;52.160;-0.428;2022-11-04T07:36:26;7.40;99.90
20744;DHT22;56303;52.160;-0.428;2022-11-04T07:38:53;7.40;99.90
20744;DHT22;56303;52.160;-0.428;2022-11-04T07:41:20;7.40;99.90
20744;DHT22;56303;52.160;-0.428;2022-11-04T07:43:50;7.60;99.90
20744;DHT22;56303;52.160;-0.428;2022-11-04T07:46:18;7.90;99.90
20744;DHT22;56303;52.160;-0.428;2022-11-04T07:48:46;7.50;99.90
20744;DHT22;56303;52.160;-0.428;2022-11-04T07:51:15;7.60;99.90
20744;DHT22;56303;52.160;-0.428;2022-11-04T07:53:43;7.40;99.90
20744;DHT22;56303;52.160;-0.428;2022-11-04T07:56:11;7.10;99.90
20744;DHT22;56303;52.160;-0.428;2022-11-04T07:58:39;7.40;99.90
20744;DHT22;56303;52.160;-0.428;2022-11-04T08:01:09;7.20;99.90
20744;DHT22;56303;52.160;-0.428;2022-11-04T08:03:36;7.00;99.90
20744;DHT22;56303;52.160;-0.428;2022-11-04T08:06:04;7.10;99.90
20744;DHT22;56303;52.160;-0.428;2022-11-04T08:08:32;7.30;99.90
20744;DHT22;56303;52.160;-0.428;2022-11-04T08:11:02;7.30;99.90
20744;DHT22;56303;52.160;-0.428;2022-11-04T08:13:31;7.50;99.90
20744;DHT22;56303;52.160;-0.428;2022-11-04T08:16:06;7.40;99.90
20744;DHT22;56303;52.160;-0.428;2022-11-04T08:18:35;7.20;99.90
20744;DHT22;56303;52.160;-0.428;2022-11-04T08:21:02;7.10;99.90
20744;DHT22;56303;52.160;-0.428;2022-11-04T08:23:31;7.20;99.90
20744;DHT22;56303;52.160;-0.428;2022-11-04T08:25:58;7.90;99.90
20744;DHT22;56303;52.160;-0.428;2022-11-04T08:28:26;8.00;99.90
20744;DHT22;56303;52.160;-0.428;2022-11-04T08:30:58;8.10;99.90
20744;DHT22;56303;52.160;-0.428;2022-11-04T08:33:26;7.90;99.90
20744;DHT22;56303;52.160;-0.428;2022-11-04T08:35:55;7.90;99.90
20744;DHT22;56303;52.160;-0.428;2022-11-04T08:38:24;7.80;99.90
20744;DHT22;56303;52.160;-0.428;2022-11-04T08:40:51;7.80;99.90
20744;DHT22;56303;52.160;-0.428;2022-11-04T08:43:25;7.70;99.90
20744;DHT22;56303;52.160;-0.428;2022-11-04T08:45:53;7.60;99.90
20744;DHT22;56303;52.160;-0.428;2022-11-04T08:48:20;7.90;99.90
20744;DHT22;56303;52.160;-0.428;2022-11-04T08:50:52;7.90;99.90
20744;DHT22;56303;52.160;-0.428;2022-11-04T08:53:20;7.80;99.90
20744;DHT22;56303;52.160;-0.428;2022-11-04T08:55:47;7.90;99.90
20744;DHT22;56303;52.160;-0.428;2022-11-04T08:58:14;8.40;99.90
20744;DHT22;56303;52.160;-0.428;2022-11-04T09:00:41;8.30;99.90
20744;DHT22;56303;52.160;-0.428;2022-11-04T09:03:08;8.10;99.90
20744;DHT22;56303;52.160;-0.428;2022-11-04T09:05:38;8.50;99.90
20744;DHT22;56303;52.160;-0.428;2022-11-04T09:08:14;8.60;99.90
20744;DHT22;56303;52.160;-0.428;2022-11-04T09:10:44;8.60;99.90
20744;DHT22;56303;52.160;-0.428;2022-11-04T09:13:11;8.80;99.90
20744;DHT22;56303;52.160;-0.428;2022-11-04T09:15:39;9.00;99.90
20744;DHT22;56303;52.160;-0.428;2022-11-04T09:18:06;9.20;99.90
20744;DHT22;56303;52.160;-0.428;2022-11-04T09:20:33;9.30;99.90
20744;DHT22;56303;52.160;-0.428;2022-11-04T09:23:04;9.10;99.90
20744;DHT22;56303;52.160;-0.428;2022-11-04T09:25:31;9.10;99.90
20744;DHT22;56303;52.160;-0.428;2022-11-04T09:27:58;9.40;99.90
20744;DHT22;56303;52.160;-0.428;2022-11-04T09:30:25;9.60;99.90
20744;DHT22;56303;52.160;-0.428;2022-11-04T09:32:53;9.60;99.90
20744;DHT22;56303;52.160;-0.428;2022-11-04T09:35:20;9.70;99.90
20744;DHT22;56303;52.160;-0.428;2022-11-04T09:37:47;9.90;99.90
20744;DHT22;56303;52.160;-0.428;2022-11-04T09:40:16;10.00;99.90
20744;DHT22;56303;52.160;-0.428;2022-11-04T09:45:18;10.30;99.90
20744;DHT22;56303;52.160;-0.428;2022-11-04T09:47:52;10.20;99.90
20744;DHT22;56303;52.160;-0.428;2022-11-04T09:50:43;10.10;99.90
20744;DHT22;56303;52.160;-0.428;2022-11-04T09:53:17;10.00;99.90
20744;DHT22;56303;52.160;-0.428;2022-11-04T09:56:14;10.30;99.90
20744;DHT22;56303;52.160;-0.428;2022-11-04T09:58:39;9.90;99.90
20744;DHT22;56303;52.160;-0.428;2022-11-04T10:06:40;10.20;99.90
20744;DHT22;56303;52.160;-0.428;2022-11-04T10:09:18;10.10;99.90
20744;DHT22;56303;52.160;-0.428;2022-11-04T10:11:54;10.50;99.90
20744;DHT22;56303;52.160;-0.428;2022-11-04T10:15:12;10.30;99.90
20744;DHT22;56303;52.160;-0.428;2022-11-04T10:23:41;10.20;99.90
20744;DHT22;56303;52.160;-0.428;2022-11-04T10:26:12;10.40;99.90
20744;DHT22;56303;52.160;-0.428;2022-11-04T10:28:43;10.60;99.90
20744;DHT22;56303;52.160;-0.428;2022-11-04T10:31:15;10.60;99.90
20744;DHT22;56303;52.160;-0.428;2022-11-04T10:33:55;10.90;99.90
20744;DHT22;56303;52.160;-0.428;2022-11-04T10:36:25;10.80;99.90
20744;DHT22;56303;52.160;-0.428;2022-11-04T10:38:54;10.70;99.90
20744;DHT22;56303;52.160;-0.428;2022-11-04T10:41:36;10.90;99.90
20744;DHT22;56303;52.160;-0.428;2022-11-04T10:44:32;10.60;99.90
20744;DHT22;56303;52.160;-0.428;2022-11-04T10:47:06;10.80;99.90
20744;DHT22;56303;52.160;-0.428;2022-11-04T10:53:01;11.50;99.90
20744;DHT22;56303;52.160;-0.428;2022-11-04T10:58:17;11.40;99.90
20744;DHT22;56303;52.160;-0.428;2022-11-04T11:00:45;11.40;99.90
20744;DHT22;56303;52.160;-0.428;2022-11-04T11:03:30;11.30;99.90
20744;DHT22;56303;52.160;-0.428;2022-11-04T11:08:36;11.70;99.90
20744;DHT22;56303;52.160;-0.428;2022-11-04T11:11:05;11.90;99.90
20744;DHT22;56303;52.160;-0.428;2022-11-04T11:13:38;12.00;99.90
20744;DHT22;56303;52.160;-0.428;2022-11-04T11:16:11;12.20;99.90
20744;DHT22;56303;52.160;-0.428;2022-11-04T11:18:39;12.20;99.90
20744;DHT22;56303;52.160;-0.428;2022-11-04T11:21:11;12.40;99.90
20744;DHT22;56303;52.160;-0.428;2022-11-04T11:23:46;12.70;99.90
20744;DHT22;56303;52.160;-0.428;2022-11-04T11:26:30;13.20;99.90
20744;DHT22;56303;52.160;-0.428;2022-11-04T11:28:58;13.20;99.90
20744;DHT22;56303;52.160;-0.428;2022-11-04T11:31:36;13.60;99.90
20744;DHT22;56303;52.160;-0.428;2022-11-04T11:34:13;13.80;99.90
20744;DHT22;56303;52.160;-0.428;2022-11-04T11:36:41;13.90;99.90
20744;DHT22;56303;52.160;-0.428;2022-11-04T11:44:28;14.20;99.90
20744;DHT22;56303;52.160;-0.428;2022-11-04T11:47:08;13.70;99.90
20744;DHT22;56303;52.160;-0.428;2022-11-04T11:49:44;14.00;99.90
20744;DHT22;56303;52.160;-0.428;2022-11-04T11:58:41;14.40;99.90
20744;DHT22;56303;52.160;-0.428;2022-11-04T12:01:31;14.60;99.90
20744;DHT22;56303;52.160;-0.428;2022-11-04T12:04:00;15.00;99.90
20744;DHT22;56303;52.160;-0.428;2022-11-04T12:13:26;15.50;99.90
20744;DHT22;56303;52.160;-0.428;2022-11-04T12:16:17;15.60;99.90
20744;DHT22;56303;52.160;-0.428;2022-11-04T12:30:21;16.00;99.90
20744;DHT22;56303;52.160;-0.428;2022-11-04T12:35:48;16.00;99.90
20744;DHT22;56303;52.160;-0.428;2022-11-04T12:42:25;15.20;99.90
20744;DHT22;56303;52.160;-0.428;2022-11-04T12:47:47;15.70;99.90
20744;DHT22;56303;52.160;-0.428;2022-11-04T13:03:49;16.40;99.90
20744;DHT22;56303;52.160;-0.428;2022-11-04T13:06:25;16.10;99.90
20744;DHT22;56303;52.160;-0.428;2022-11-04T13:09:05;15.10;99.90
20744;DHT22;56303;52.160;-0.428;2022-11-04T13:11:56;16.40;99.90
20744;DHT22;56303;52.160;-0.428;2022-11-04T13:14:26;16.30;99.90
20744;DHT22;56303;52.160;-0.428;2022-11-04T13:16:58;16.60;99.90
20744;DHT22;56303;52.160;-0.428;2022-11-04T13:19:55;16.00;99.90
20744;DHT22;56303;52.160;-0.428;2022-11-04T13:22:35;15.10;99.90
20744;DHT22;56303;52.160;-0.428;2022-11-04T13:27:47;15.60;99.90
20744;DHT22;56303;52.160;-0.428;2022-11-04T13:30:18;15.60;99.90
20744;DHT22;56303;52.160;-0.428;2022-11-04T13:32:54;15.10;99.90
20744;DHT22;56303;52.160;-0.428;2022-11-04T13:38:10;15.50;99.90
20744;DHT22;56303;52.160;-0.428;2022-11-04T13:43:38;15.50;99.90
20744;DHT22;56303;52.160;-0.428;2022-11-04T13:51:46;16.10;99.90
20744;DHT22;56303;52.160;-0.428;2022-11-04T13:54:29;15.80;99.90
20744;DHT22;56303;52.160;-0.428;2022-11-04T13:57:15;15.40;99.90
20744;DHT22;56303;52.160;-0.428;2022-11-04T14:02:54;16.50;99.90
20744;DHT22;56303;52.160;-0.428;2022-11-04T14:16:36;16.90;99.90
20744;DHT22;56303;52.160;-0.428;2022-11-04T14:22:14;19.00;99.90
20744;DHT22;56303;52.160;-0.428;2022-11-04T14:24:42;18.90;99.90
20744;DHT22;56303;52.160;-0.428;2022-11-04T14:27:25;19.00;99.90
20744;DHT22;56303;52.160;-0.428;2022-11-04T14:29:53;18.50;99.90
20744;DHT22;56303;52.160;-0.428;2022-11-04T14:32:28;18.50;99.90
20744;DHT22;56303;52.160;-0.428;2022-11-04T14:35:02;18.60;99.90
20744;DHT22;56303;52.160;-0.428;2022-11-04T14:37:33;19.10;99.90
20744;DHT22;56303;52.160;-0.428;2022-11-04T14:40:03;18.70;99.90
20744;DHT22;56303;52.160;-0.428;2022-11-04T14:42:50;17.70;99.90
20744;DHT22;56303;52.160;-0.428;2022-11-04T14:45:21;16.90;99.90
20744;DHT22;56303;52.160;-0.428;2022-11-04T14:47:51;16.70;99.90
20744;DHT22;56303;52.160;-0.428;2022-11-04T14:50:25;16.50;99.90
20744;DHT22;56303;52.160;-0.428;2022-11-04T14:52:58;16.80;99.90
20744;DHT22;56303;52.160;-0.428;2022-11-04T14:55:28;17.00;99.90
20744;DHT22;56303;52.160;-0.428;2022-11-04T14:58:20;17.00;99.90
20744;DHT22;56303;52.160;-0.428;2022-11-04T15:06:09;18.30;99.90
20744;DHT22;56303;52.160;-0.428;2022-11-04T15:11:18;16.70;99.90
20744;DHT22;56303;52.160;-0.428;2022-11-04T15:14:12;16.10;99.90
20744;DHT22;56303;52.160;-0.428;2022-11-04T15:16:40;16.20;99.90
20744;DHT22;56303;52.160;-0.428;2022-11-04T15:19:08;16.50;99.90
20744;DHT22;56303;52.160;-0.428;2022-11-04T15:21:39;17.10;99.90
20744;DHT22;56303;52.160;-0.428;2022-11-04T15:24:13;16.60;99.90
20744;DHT22;56303;52.160;-0.428;2022-11-04T15:26:42;16.50;99.90
20744;DHT22;56303;52.160;-0.428;2022-11-04T15:29:15;16.40;99.90
20744;DHT22;56303;52.160;-0.428;2022-11-04T15:32:13;15.80;99.90
20744;DHT22;56303;52.160;-0.428;2022-11-04T15:34:40;14.90;99.90
20744;DHT22;56303;52.160;-0.428;2022-11-04T15:37:07;14.20;99.90
20744;DHT22;56303;52.160;-0.428;2022-11-04T15:39:40;14.30;99.90
20744;DHT22;56303;52.160;-0.428;2022-11-04T15:42:22;13.90;99.90
20744;DHT22;56303;52.160;-0.428;2022-11-04T15:47:48;13.50;99.90
20744;DHT22;56303;52.160;-0.428;2022-11-04T15:50:24;13.30;99.90
20744;DHT22;56303;52.160;-0.428;2022-11-04T15:52:57;13.20;99.90
20744;DHT22;56303;52.160;-0.428;2022-11-04T15:55:31;13.10;99.90
20744;DHT22;56303;52.160;-0.428;2022-11-04T15:58:01;13.10;99.90
20744;DHT22;56303;52.160;-0.428;2022-11-04T16:00:29;13.00;99.90
20744;DHT22;56303;52.160;-0.428;2022-11-04T16:02:57;12.80;99.90
20744;DHT22;56303;52.160;-0.428;2022-11-04T16:05:30;12.90;99.90
20744;DHT22;56303;52.160;-0.428;2022-11-04T16:10:44;12.70;99.90
20744;DHT22;56303;52.160;-0.428;2022-11-04T16:15:45;12.90;99.90
20744;DHT22;56303;52.160;-0.428;2022-11-04T16:18:35;12.80;99.90
20744;DHT22;56303;52.160;-0.428;2022-11-04T16:21:19;12.80;99.90
20744;DHT22;56303;52.160;-0.428;2022-11-04T16:23:50;12.60;99.90
20744;DHT22;56303;52.160;-0.428;2022-11-04T16:26:45;12.20;99.90
20744;DHT22;56303;52.160;-0.428;2022-11-04T16:29:19;12.20;99.90
20744;DHT22;56303;52.160;-0.428;2022-11-04T16:32:23;12.10;99.90
20744;DHT22;56303;52.160;-0.428;2022-11-04T16:34:52;12.00;99.90
20744;DHT22;56303;52.160;-0.428;2022-11-04T16:37:19;11.80;99.90
20744;DHT22;56303;52.160;-0.428;2022-11-04T16:39:46;11.80;99.90
20744;DHT22;56303;52.160;-0.428;2022-11-04T16:42:15;11.80;99.90
20744;DHT22;56303;52.160;-0.428;2022-11-04T16:44:47;11.70;99.90
20744;DHT22;56303;52.160;-0.428;2022-11-04T16:47:16;11.80;99.90
20744;DHT22;56303;52.160;-0.428;2022-11-04T16:49:44;11.80;99.90
20744;DHT22;56303;52.160;-0.428;2022-11-04T16:52:14;12.00;99.90
20744;DHT22;56303;52.160;-0.428;2022-11-04T16:54:46;12.10;99.90
20744;DHT22;56303;52.160;-0.428;2022-11-04T16:57:14;12.00;99.90
20744;DHT22;56303;52.160;-0.428;2022-11-04T16:59:41;12.00;99.90
20744;DHT22;56303;52.160;-0.428;2022-11-04T17:02:28;12.00;99.90
20744;DHT22;56303;52.160;-0.428;2022-11-04T17:04:58;12.10;99.90
20744;DHT22;56303;52.160;-0.428;2022-11-04T17:07:25;12.00;99.90
20744;DHT22;56303;52.160;-0.428;2022-11-04T17:10:15;12.00;99.90
20744;DHT22;56303;52.160;-0.428;2022-11-04T17:12:43;11.90;99.90
20744;DHT22;56303;52.160;-0.428;2022-11-04T17:15:11;11.90;99.90
20744;DHT22;56303;52.160;-0.428;2022-11-04T17:17:39;11.80;99.90
20744;DHT22;56303;52.160;-0.428;2022-11-04T17:20:07;11.80;99.90
20744;DHT22;56303;52.160;-0.428;2022-11-04T17:22:36;11.90;99.90
20744;DHT22;56303;52.160;-0.428;2022-11-04T17:25:04;11.90;99.90
20744;DHT22;56303;52.160;-0.428;2022-11-04T17:27:36;11.90;99.90
20744;DHT22;56303;52.160;-0.428;2022-11-04T17:30:03;11.80;99.90
20744;DHT22;56303;52.160;-0.428;2022-11-04T17:32:30;11.90;99.90
20744;DHT22;56303;52.160;-0.428;2022-11-04T17:34:56;11.80;99.90
20744;DHT22;56303;52.160;-0.428;2022-11-04T17:37:23;11.90;99.90
20744;DHT22;56303;52.160;-0.428;2022-11-04T17:39:50;11.90;99.90
20744;DHT22;56303;52.160;-0.428;2022-11-04T17:42:17;11.90;99.90
20744;DHT22;56303;52.160;-0.428;2022-11-04T17:45:02;11.60;99.90
20744;DHT22;56303;52.160;-0.428;2022-11-04T17:47:34;11.60;99.90
20744;DHT22;56303;52.160;-0.428;2022-11-04T17:50:04;11.50;99.90
20744;DHT22;56303;52.160;-0.428;2022-11-04T17:52:34;11.50;99.90
20744;DHT22;56303;52.160;-0.428;2022-11-04T17:55:02;11.60;99.90
20744;DHT22;56303;52.160;-0.428;2022-11-04T17:57:33;11.60;99.90
20744;DHT22;56303;52.160;-0.428;2022-11-04T18:00:00;11.50;99.90
20744;DHT22;56303;52.160;-0.428;2022-11-04T18:02:31;11.40;99.90
20744;DHT22;56303;52.160;-0.428;2022-11-04T18:04:58;11.40;99.90
20744;DHT22;56303;52.160;-0.428;2022-11-04T18:07:28;11.40;99.90
20744;DHT22;56303;52.160;-0.428;2022-11-04T18:09:55;11.40;99.90
20744;DHT22;56303;52.160;-0.428;2022-11-04T18:12:23;11.40;99.90
20744;DHT22;56303;52.160;-0.428;2022-11-04T18:15:08;11.40;99.90
20744;DHT22;56303;52.160;-0.428;2022-11-04T18:17:37;10.90;99.90
20744;DHT22;56303;52.160;-0.428;2022-11-04T18:20:05;11.10;99.90
20744;DHT22;56303;52.160;-0.428;2022-11-04T18:22:40;11.10;99.90
20744;DHT22;56303;52.160;-0.428;2022-11-04T18:25:07;11.10;99.90
20744;DHT22;56303;52.160;-0.428;2022-11-04T18:27:35;11.10;99.90
20744;DHT22;56303;52.160;-0.428;2022-11-04T18:30:02;11.00;99.90
20744;DHT22;56303;52.160;-0.428;2022-11-04T18:32:29;10.90;99.90
20744;DHT22;56303;52.160;-0.428;2022-11-04T18:34:55;10.80;99.90